sensor_id;sensor_type;location;lat;lon;timestamp;pressure;altitude;pressure_sealevel;temperature;humidity
70690;BME280;58267;51.156;17.044;2023-05-29T00:01:30;100523.63;;;15.67;30.90
70690;BME280;58267;51.156;17.044;2023-05-29T00:03:55;100526.34;;;15.82;31.09
70690;BME280;58267;51.156;17.044;2023-05-29T00:06:21;100523.14;;;16.07;30.81
70690;BME280;58267;51.156;17.044;2023-05-29T00:08:46;100523.30;;;15.54;30.75
70690;BME280;58267;51.156;17.044;2023-05-29T00:11:11;100517.97;;;15.91;31.10
70690;BME280;58267;51.156;17.044;2023-05-29T00:13:36;100521.36;;;15.59;30.96
70690;BME280;58267;51.156;17.044;2023-05-29T00:16:01;100519.48;;;15.70;30.99
70690;BME280;58267;51.156;17.044;2023-05-29T00:18:27;100522.13;;;15.70;31.06
70690;BME280;58267;51.156;17.044;2023-05-29T00:20:52;100520.18;;;15.59;31.49
70690;BME280;58267;51.156;17.044;2023-05-29T00:23:17;100521.77;;;15.60;31.50
70690;BME280;58267;51.156;17.044;2023-05-29T00:25:42;100519.26;;;15.57;31.43
70690;BME280;58267;51.156;17.044;2023-05-29T00:28:09;100520.78;;;15.36;31.49
70690;BME280;58267;51.156;17.044;2023-05-29T00:30:33;100519.81;;;15.53;31.78
70690;BME280;58267;51.156;17.044;2023-05-29T00:32:58;100517.68;;;15.23;32.17
70690;BME280;58267;51.156;17.044;2023-05-29T00:35:24;100514.85;;;14.99;32.23
70690;BME280;58267;51.156;17.044;2023-05-29T00:37:49;100513.56;;;15.00;32.07
70690;BME280;58267;51.156;17.044;2023-05-29T00:40:15;100512.33;;;15.14;32.48
70690;BME280;58267;51.156;17.044;2023-05-29T00:42:40;100512.02;;;14.79;32.80
70690;BME280;58267;51.156;17.044;2023-05-29T00:45:07;100513.92;;;14.79;32.88
70690;BME280;58267;51.156;17.044;2023-05-29T00:47:31;100514.34;;;14.75;32.94
70690;BME280;58267;51.156;17.044;2023-05-29T00:49:57;100514.18;;;14.60;33.09
70690;BME280;58267;51.156;17.044;2023-05-29T00:52:21;100513.48;;;14.48;33.22
70690;BME280;58267;51.156;17.044;2023-05-29T00:54:47;100512.31;;;14.72;33.25
70690;BME280;58267;51.156;17.044;2023-05-29T00:57:13;100510.23;;;14.71;33.24
70690;BME280;58267;51.156;17.044;2023-05-29T00:59:37;100507.90;;;14.71;33.35
70690;BME280;58267;51.156;17.044;2023-05-29T01:02:02;100505.52;;;14.86;33.49
70690;BME280;58267;51.156;17.044;2023-05-29T01:04:27;100505.46;;;14.91;33.49
70690;BME280;58267;51.156;17.044;2023-05-29T01:06:53;100504.64;;;14.61;33.65
70690;BME280;58267;51.156;17.044;2023-05-29T01:09:18;100505.87;;;14.48;33.88
70690;BME280;58267;51.156;17.044;2023-05-29T01:11:50;100512.89;;;14.42;33.81
70690;BME280;58267;51.156;17.044;2023-05-29T01:14:19;100514.55;;;14.24;34.21
70690;BME280;58267;51.156;17.044;2023-05-29T01:16:40;100512.61;;;14.52;34.20
70690;BME280;58267;51.156;17.044;2023-05-29T01:19:08;100511.01;;;14.51;34.23
70690;BME280;58267;51.156;17.044;2023-05-29T01:21:36;100512.63;;;14.45;34.50
70690;BME280;58267;51.156;17.044;2023-05-29T01:23:56;100509.54;;;14.19;34.58
70690;BME280;58267;51.156;17.044;2023-05-29T01:28:43;100509.28;;;14.07;34.62
70690;BME280;58267;51.156;17.044;2023-05-29T01:31:07;100508.25;;;14.25;34.80
70690;BME280;58267;51.156;17.044;2023-05-29T01:33:33;100507.73;;;14.24;34.72
70690;BME280;58267;51.156;17.044;2023-05-29T01:35:57;100507.61;;;14.21;34.67
70690;BME280;58267;51.156;17.044;2023-05-29T01:38:22;100508.67;;;14.20;34.52
70690;BME280;58267;51.156;17.044;2023-05-29T01:40:48;100509.89;;;13.87;34.82
70690;BME280;58267;51.156;17.044;2023-05-29T01:43:13;100514.15;;;13.92;35.15
70690;BME280;58267;51.156;17.044;2023-05-29T01:45:39;100512.09;;;14.10;35.02
70690;BME280;58267;51.156;17.044;2023-05-29T01:48:04;100508.64;;;14.26;34.89
70690;BME280;58267;51.156;17.044;2023-05-29T01:50:30;100508.08;;;14.27;35.08
70690;BME280;58267;51.156;17.044;2023-05-29T01:52:56;100508.09;;;14.23;35.06
70690;BME280;58267;51.156;17.044;2023-05-29T01:55:21;100506.33;;;14.13;35.09
70690;BME280;58267;51.156;17.044;2023-05-29T01:57:47;100500.56;;;14.13;34.91
70690;BME280;58267;51.156;17.044;2023-05-29T02:00:13;100497.71;;;14.05;34.69
70690;BME280;58267;51.156;17.044;2023-05-29T02:02:38;100495.94;;;13.94;34.93
70690;BME280;58267;51.156;17.044;2023-05-29T02:05:03;100499.57;;;13.83;34.45
70690;BME280;58267;51.156;17.044;2023-05-29T02:07:28;100501.54;;;14.02;34.51
70690;BME280;58267;51.156;17.044;2023-05-29T02:09:53;100505.14;;;14.01;34.80
70690;BME280;58267;51.156;17.044;2023-05-29T02:12:18;100505.95;;;14.40;34.30
70690;BME280;58267;51.156;17.044;2023-05-29T02:14:44;100507.74;;;14.21;34.11
70690;BME280;58267;51.156;17.044;2023-05-29T02:17:09;100506.08;;;14.13;34.14
70690;BME280;58267;51.156;17.044;2023-05-29T02:19:34;100507.28;;;13.79;34.24
70690;BME280;58267;51.156;17.044;2023-05-29T02:21:59;100503.50;;;13.93;34.28
70690;BME280;58267;51.156;17.044;2023-05-29T02:24:24;100503.28;;;13.72;34.51
70690;BME280;58267;51.156;17.044;2023-05-29T02:26:50;100500.13;;;13.81;34.83
70690;BME280;58267;51.156;17.044;2023-05-29T02:29:15;100500.29;;;13.56;34.55
70690;BME280;58267;51.156;17.044;2023-05-29T02:31:41;100502.84;;;13.76;34.34
70690;BME280;58267;51.156;17.044;2023-05-29T02:34:06;100500.10;;;13.86;34.12
70690;BME280;58267;51.156;17.044;2023-05-29T02:36:32;100498.55;;;13.54;34.31
70690;BME280;58267;51.156;17.044;2023-05-29T02:38:57;100499.62;;;13.58;34.47
70690;BME280;58267;51.156;17.044;2023-05-29T02:41:22;100498.01;;;13.11;34.69
70690;BME280;58267;51.156;17.044;2023-05-29T02:43:47;100499.34;;;13.32;34.72
70690;BME280;58267;51.156;17.044;2023-05-29T02:46:13;100503.18;;;13.36;34.96
70690;BME280;58267;51.156;17.044;2023-05-29T02:48:38;100502.27;;;13.31;35.35
70690;BME280;58267;51.156;17.044;2023-05-29T02:51:03;100500.87;;;13.35;35.08
70690;BME280;58267;51.156;17.044;2023-05-29T02:53:28;100502.57;;;13.42;34.87
70690;BME280;58267;51.156;17.044;2023-05-29T02:55:53;100501.12;;;13.13;34.91
70690;BME280;58267;51.156;17.044;2023-05-29T02:58:19;100501.50;;;12.98;34.95
70690;BME280;58267;51.156;17.044;2023-05-29T03:00:45;100499.78;;;13.22;34.97
70690;BME280;58267;51.156;17.044;2023-05-29T03:03:10;100502.67;;;13.03;35.19
70690;BME280;58267;51.156;17.044;2023-05-29T03:05:36;100502.73;;;13.14;35.31
70690;BME280;58267;51.156;17.044;2023-05-29T03:08:01;100507.22;;;13.09;35.34
70690;BME280;58267;51.156;17.044;2023-05-29T03:10:26;100509.37;;;13.06;35.52
70690;BME280;58267;51.156;17.044;2023-05-29T03:12:51;100508.47;;;13.16;35.34
70690;BME280;58267;51.156;17.044;2023-05-29T03:15:17;100509.32;;;13.19;35.60
70690;BME280;58267;51.156;17.044;2023-05-29T03:17:42;100510.30;;;12.90;35.98
70690;BME280;58267;51.156;17.044;2023-05-29T03:20:08;100513.93;;;13.15;36.19
70690;BME280;58267;51.156;17.044;2023-05-29T03:22:33;100515.95;;;13.04;36.41
70690;BME280;58267;51.156;17.044;2023-05-29T03:24:58;100513.85;;;13.01;36.03
70690;BME280;58267;51.156;17.044;2023-05-29T03:27:24;100515.05;;;13.46;35.68
70690;BME280;58267;51.156;17.044;2023-05-29T03:29:50;100516.97;;;13.64;35.57
70690;BME280;58267;51.156;17.044;2023-05-29T03:32:16;100518.02;;;13.24;35.50
70690;BME280;58267;51.156;17.044;2023-05-29T03:34:41;100521.42;;;13.13;35.78
70690;BME280;58267;51.156;17.044;2023-05-29T03:37:06;100522.58;;;13.54;35.54
70690;BME280;58267;51.156;17.044;2023-05-29T03:39:32;100525.96;;;13.68;35.26
70690;BME280;58267;51.156;17.044;2023-05-29T03:41:57;100529.01;;;13.39;36.16
70690;BME280;58267;51.156;17.044;2023-05-29T03:44:23;100530.13;;;13.60;35.75
70690;BME280;58267;51.156;17.044;2023-05-29T03:46:48;100532.86;;;13.54;35.91
70690;BME280;58267;51.156;17.044;2023-05-29T03:49:14;100534.47;;;13.65;35.88
70690;BME280;58267;51.156;17.044;2023-05-29T03:51:39;100536.12;;;14.07;35.67
70690;BME280;58267;51.156;17.044;2023-05-29T03:54:04;100537.36;;;14.06;35.75
70690;BME280;58267;51.156;17.044;2023-05-29T03:56:30;100536.98;;;13.84;35.65
70690;BME280;58267;51.156;17.044;2023-05-29T03:58:55;100537.31;;;13.95;35.57
70690;BME280;58267;51.156;17.044;2023-05-29T04:01:20;100539.00;;;13.93;35.67
70690;BME280;58267;51.156;17.044;2023-05-29T04:03:46;100541.76;;;14.06;35.91
70690;BME280;58267;51.156;17.044;2023-05-29T04:06:11;100541.10;;;14.05;35.59
70690;BME280;58267;51.156;17.044;2023-05-29T04:08:37;100541.13;;;14.16;35.79
70690;BME280;58267;51.156;17.044;2023-05-29T04:11:02;100542.75;;;13.67;36.56
70690;BME280;58267;51.156;17.044;2023-05-29T04:13:27;100542.78;;;14.05;36.46
70690;BME280;58267;51.156;17.044;2023-05-29T04:15:53;100541.84;;;13.67;36.93
70690;BME280;58267;51.156;17.044;2023-05-29T04:18:18;100541.67;;;13.57;37.17
70690;BME280;58267;51.156;17.044;2023-05-29T04:20:43;100544.06;;;13.73;36.79
70690;BME280;58267;51.156;17.044;2023-05-29T04:23:09;100548.47;;;13.89;36.66
70690;BME280;58267;51.156;17.044;2023-05-29T04:25:34;100548.28;;;13.60;37.26
70690;BME280;58267;51.156;17.044;2023-05-29T04:28:00;100550.33;;;13.74;37.49
70690;BME280;58267;51.156;17.044;2023-05-29T04:30:25;100551.13;;;13.78;37.16
70690;BME280;58267;51.156;17.044;2023-05-29T04:32:51;100554.82;;;14.12;36.84
70690;BME280;58267;51.156;17.044;2023-05-29T04:35:16;100556.96;;;13.87;37.25
70690;BME280;58267;51.156;17.044;2023-05-29T04:37:42;100558.79;;;13.97;36.99
70690;BME280;58267;51.156;17.044;2023-05-29T04:40:09;100559.67;;;14.28;36.50
70690;BME280;58267;51.156;17.044;2023-05-29T04:42:32;100566.24;;;14.64;35.64
70690;BME280;58267;51.156;17.044;2023-05-29T04:44:58;100569.68;;;14.36;35.94
70690;BME280;58267;51.156;17.044;2023-05-29T04:47:23;100567.64;;;14.93;35.47
70690;BME280;58267;51.156;17.044;2023-05-29T04:49:48;100564.58;;;15.06;35.31
70690;BME280;58267;51.156;17.044;2023-05-29T04:52:14;100562.52;;;15.26;34.66
70690;BME280;58267;51.156;17.044;2023-05-29T04:54:40;100558.57;;;15.58;34.27
70690;BME280;58267;51.156;17.044;2023-05-29T04:57:11;100560.72;;;15.10;34.60
70690;BME280;58267;51.156;17.044;2023-05-29T04:59:31;100559.01;;;15.43;34.27
70690;BME280;58267;51.156;17.044;2023-05-29T05:01:56;100562.44;;;15.29;34.87
70690;BME280;58267;51.156;17.044;2023-05-29T05:04:22;100566.68;;;15.40;34.59
70690;BME280;58267;51.156;17.044;2023-05-29T05:06:47;100571.30;;;15.25;34.26
70690;BME280;58267;51.156;17.044;2023-05-29T05:09:13;100572.79;;;15.47;34.11
70690;BME280;58267;51.156;17.044;2023-05-29T05:11:39;100571.82;;;15.16;34.53
70690;BME280;58267;51.156;17.044;2023-05-29T05:14:04;100571.53;;;14.97;35.05
70690;BME280;58267;51.156;17.044;2023-05-29T05:16:29;100570.28;;;15.69;34.84
70690;BME280;58267;51.156;17.044;2023-05-29T05:18:55;100571.47;;;15.29;34.97
70690;BME280;58267;51.156;17.044;2023-05-29T05:21:20;100565.99;;;15.88;34.39
70690;BME280;58267;51.156;17.044;2023-05-29T05:26:12;100569.27;;;16.50;33.35
70690;BME280;58267;51.156;17.044;2023-05-29T05:28:37;100567.57;;;16.21;33.03
70690;BME280;58267;51.156;17.044;2023-05-29T05:31:02;100567.67;;;16.42;33.21
70690;BME280;58267;51.156;17.044;2023-05-29T05:33:28;100571.84;;;16.50;32.78
70690;BME280;58267;51.156;17.044;2023-05-29T05:35:53;100575.45;;;16.95;32.23
70690;BME280;58267;51.156;17.044;2023-05-29T05:38:18;100575.49;;;17.05;32.13
70690;BME280;58267;51.156;17.044;2023-05-29T05:40:44;100577.38;;;16.92;31.95
70690;BME280;58267;51.156;17.044;2023-05-29T05:43:09;100575.72;;;17.43;31.75
70690;BME280;58267;51.156;17.044;2023-05-29T05:45:34;100573.32;;;17.53;31.43
70690;BME280;58267;51.156;17.044;2023-05-29T05:47:59;100571.44;;;17.46;31.16
70690;BME280;58267;51.156;17.044;2023-05-29T05:50:25;100578.12;;;17.57;30.66
70690;BME280;58267;51.156;17.044;2023-05-29T05:52:50;100577.76;;;17.81;29.91
70690;BME280;58267;51.156;17.044;2023-05-29T05:55:16;100578.33;;;17.92;29.73
70690;BME280;58267;51.156;17.044;2023-05-29T05:57:41;100576.24;;;18.16;29.78
70690;BME280;58267;51.156;17.044;2023-05-29T06:00:07;100573.82;;;18.32;29.55
70690;BME280;58267;51.156;17.044;2023-05-29T06:02:32;100577.67;;;18.24;29.77
70690;BME280;58267;51.156;17.044;2023-05-29T06:04:57;100577.03;;;18.46;29.78
70690;BME280;58267;51.156;17.044;2023-05-29T06:07:22;100577.51;;;18.64;29.78
70690;BME280;58267;51.156;17.044;2023-05-29T06:09:48;100579.73;;;19.09;33.23
70690;BME280;58267;51.156;17.044;2023-05-29T06:12:13;100580.87;;;20.17;32.01
70690;BME280;58267;51.156;17.044;2023-05-29T06:14:38;100579.69;;;20.78;30.59
70690;BME280;58267;51.156;17.044;2023-05-29T06:17:04;100580.83;;;21.34;29.66
70690;BME280;58267;51.156;17.044;2023-05-29T06:19:29;100582.84;;;22.17;28.32
70690;BME280;58267;51.156;17.044;2023-05-29T06:21:54;100586.00;;;22.04;27.59
70690;BME280;58267;51.156;17.044;2023-05-29T06:24:20;100588.32;;;22.32;26.85
70690;BME280;58267;51.156;17.044;2023-05-29T06:26:45;100586.98;;;22.41;25.99
70690;BME280;58267;51.156;17.044;2023-05-29T06:29:10;100583.77;;;22.82;26.56
70690;BME280;58267;51.156;17.044;2023-05-29T06:31:35;100584.14;;;22.57;25.84
70690;BME280;58267;51.156;17.044;2023-05-29T06:34:01;100584.91;;;22.76;25.53
70690;BME280;58267;51.156;17.044;2023-05-29T06:36:27;100587.02;;;22.91;25.30
70690;BME280;58267;51.156;17.044;2023-05-29T06:38:53;100582.15;;;23.23;25.02
70690;BME280;58267;51.156;17.044;2023-05-29T06:41:18;100584.44;;;23.37;24.48
70690;BME280;58267;51.156;17.044;2023-05-29T06:43:43;100593.46;;;22.55;24.35
70690;BME280;58267;51.156;17.044;2023-05-29T06:46:09;100595.44;;;22.03;25.81
70690;BME280;58267;51.156;17.044;2023-05-29T06:48:34;100597.01;;;22.01;25.46
70690;BME280;58267;51.156;17.044;2023-05-29T06:50:59;100603.06;;;22.11;25.38
70690;BME280;58267;51.156;17.044;2023-05-29T06:53:25;100599.82;;;22.62;25.76
70690;BME280;58267;51.156;17.044;2023-05-29T06:55:50;100601.07;;;22.38;25.55
70690;BME280;58267;51.156;17.044;2023-05-29T06:58:15;100601.53;;;23.00;25.21
70690;BME280;58267;51.156;17.044;2023-05-29T07:00:41;100597.68;;;22.85;25.18
70690;BME280;58267;51.156;17.044;2023-05-29T07:03:06;100598.46;;;23.43;24.80
70690;BME280;58267;51.156;17.044;2023-05-29T07:05:31;100598.93;;;22.92;24.97
70690;BME280;58267;51.156;17.044;2023-05-29T07:07:56;100603.16;;;23.01;24.84
70690;BME280;58267;51.156;17.044;2023-05-29T07:10:23;100604.55;;;23.29;24.76
70690;BME280;58267;51.156;17.044;2023-05-29T07:12:48;100611.96;;;22.99;25.40
70690;BME280;58267;51.156;17.044;2023-05-29T07:15:13;100612.07;;;22.27;26.02
70690;BME280;58267;51.156;17.044;2023-05-29T07:17:39;100608.71;;;22.55;26.19
70690;BME280;58267;51.156;17.044;2023-05-29T07:20:07;100609.40;;;22.93;25.83
70690;BME280;58267;51.156;17.044;2023-05-29T07:22:31;100604.50;;;22.87;25.28
70690;BME280;58267;51.156;17.044;2023-05-29T07:24:56;100606.27;;;22.65;25.53
70690;BME280;58267;51.156;17.044;2023-05-29T07:27:22;100606.63;;;22.54;25.89
70690;BME280;58267;51.156;17.044;2023-05-29T07:29:47;100609.26;;;22.98;25.13
70690;BME280;58267;51.156;17.044;2023-05-29T07:32:13;100606.79;;;22.59;24.66
70690;BME280;58267;51.156;17.044;2023-05-29T07:34:38;100606.76;;;22.27;25.06
70690;BME280;58267;51.156;17.044;2023-05-29T07:37:05;100609.30;;;22.49;25.27
70690;BME280;58267;51.156;17.044;2023-05-29T07:39:29;100609.82;;;22.23;25.24
70690;BME280;58267;51.156;17.044;2023-05-29T07:41:54;100612.51;;;22.13;25.21
70690;BME280;58267;51.156;17.044;2023-05-29T07:44:20;100613.01;;;21.72;25.16
70690;BME280;58267;51.156;17.044;2023-05-29T07:46:45;100608.84;;;21.84;25.38
70690;BME280;58267;51.156;17.044;2023-05-29T07:49:10;100612.11;;;22.27;26.43
70690;BME280;58267;51.156;17.044;2023-05-29T07:51:36;100611.01;;;22.65;25.53
70690;BME280;58267;51.156;17.044;2023-05-29T07:54:02;100609.06;;;22.59;25.52
70690;BME280;58267;51.156;17.044;2023-05-29T07:56:27;100608.47;;;22.58;25.24
70690;BME280;58267;51.156;17.044;2023-05-29T07:58:52;100605.81;;;23.14;23.77
70690;BME280;58267;51.156;17.044;2023-05-29T08:01:17;100605.86;;;23.50;23.49
70690;BME280;58267;51.156;17.044;2023-05-29T08:03:43;100610.56;;;23.42;24.11
70690;BME280;58267;51.156;17.044;2023-05-29T08:06:09;100608.97;;;22.98;21.76
70690;BME280;58267;51.156;17.044;2023-05-29T08:08:34;100610.17;;;23.57;24.11
70690;BME280;58267;51.156;17.044;2023-05-29T08:10:59;100609.32;;;23.34;23.24
70690;BME280;58267;51.156;17.044;2023-05-29T08:13:24;100609.65;;;23.56;22.29
70690;BME280;58267;51.156;17.044;2023-05-29T08:15:49;100611.16;;;24.04;19.94
70690;BME280;58267;51.156;17.044;2023-05-29T08:18:14;100613.61;;;24.08;21.55
70690;BME280;58267;51.156;17.044;2023-05-29T08:20:39;100614.30;;;24.04;20.02
70690;BME280;58267;51.156;17.044;2023-05-29T08:23:05;100617.16;;;22.48;19.32
70690;BME280;58267;51.156;17.044;2023-05-29T08:25:30;100621.25;;;22.53;21.73
70690;BME280;58267;51.156;17.044;2023-05-29T08:27:55;100619.28;;;22.21;22.56
70690;BME280;58267;51.156;17.044;2023-05-29T08:30:20;100621.87;;;22.48;22.57
70690;BME280;58267;51.156;17.044;2023-05-29T08:32:45;100616.52;;;23.57;21.15
70690;BME280;58267;51.156;17.044;2023-05-29T08:35:10;100615.41;;;23.74;21.11
70690;BME280;58267;51.156;17.044;2023-05-29T08:37:36;100611.54;;;22.92;19.03
70690;BME280;58267;51.156;17.044;2023-05-29T08:40:01;100615.06;;;23.51;21.09
70690;BME280;58267;51.156;17.044;2023-05-29T08:42:29;100615.56;;;23.85;20.71
70690;BME280;58267;51.156;17.044;2023-05-29T08:44:53;100618.26;;;24.15;20.57
70690;BME280;58267;51.156;17.044;2023-05-29T08:47:17;100614.46;;;23.96;20.39
70690;BME280;58267;51.156;17.044;2023-05-29T08:49:43;100618.69;;;24.00;19.38
70690;BME280;58267;51.156;17.044;2023-05-29T08:52:11;100617.74;;;24.08;20.12
70690;BME280;58267;51.156;17.044;2023-05-29T08:54:32;100624.40;;;22.57;18.76
70690;BME280;58267;51.156;17.044;2023-05-29T08:56:57;100622.86;;;22.87;19.40
70690;BME280;58267;51.156;17.044;2023-05-29T08:59:22;100627.90;;;21.89;21.76
70690;BME280;58267;51.156;17.044;2023-05-29T09:01:48;100627.46;;;22.57;20.31
70690;BME280;58267;51.156;17.044;2023-05-29T09:04:14;100626.60;;;22.62;20.76
70690;BME280;58267;51.156;17.044;2023-05-29T09:06:39;100625.41;;;22.59;20.41
70690;BME280;58267;51.156;17.044;2023-05-29T09:09:04;100615.89;;;23.21;20.47
70690;BME280;58267;51.156;17.044;2023-05-29T09:11:29;100615.88;;;23.76;20.30
70690;BME280;58267;51.156;17.044;2023-05-29T09:13:54;100623.40;;;23.85;20.18
70690;BME280;58267;51.156;17.044;2023-05-29T09:16:19;100619.74;;;23.83;19.48
70690;BME280;58267;51.156;17.044;2023-05-29T09:18:45;100620.53;;;23.60;20.23
70690;BME280;58267;51.156;17.044;2023-05-29T09:21:10;100621.80;;;23.82;20.03
70690;BME280;58267;51.156;17.044;2023-05-29T09:23:35;100624.06;;;24.22;19.86
70690;BME280;58267;51.156;17.044;2023-05-29T09:26:02;100625.06;;;24.01;19.53
70690;BME280;58267;51.156;17.044;2023-05-29T09:28:26;100627.18;;;23.73;19.40
70690;BME280;58267;51.156;17.044;2023-05-29T09:30:51;100625.68;;;23.79;20.12
70690;BME280;58267;51.156;17.044;2023-05-29T09:33:17;100624.57;;;23.82;19.87
70690;BME280;58267;51.156;17.044;2023-05-29T09:35:43;100628.71;;;24.47;19.82
70690;BME280;58267;51.156;17.044;2023-05-29T09:38:07;100625.26;;;24.62;19.70
70690;BME280;58267;51.156;17.044;2023-05-29T09:40:32;100624.19;;;24.53;19.57
70690;BME280;58267;51.156;17.044;2023-05-29T09:43:02;100622.84;;;24.62;19.41
70690;BME280;58267;51.156;17.044;2023-05-29T09:45:23;100625.46;;;24.82;19.32
70690;BME280;58267;51.156;17.044;2023-05-29T09:47:47;100621.37;;;24.80;19.24
70690;BME280;58267;51.156;17.044;2023-05-29T09:50:18;100621.58;;;24.92;19.32
70690;BME280;58267;51.156;17.044;2023-05-29T09:52:38;100620.23;;;25.09;19.25
70690;BME280;58267;51.156;17.044;2023-05-29T09:55:03;100620.83;;;24.65;19.26
70690;BME280;58267;51.156;17.044;2023-05-29T09:57:28;100619.22;;;23.63;19.97
70690;BME280;58267;51.156;17.044;2023-05-29T09:59:53;100621.32;;;24.15;20.00
70690;BME280;58267;51.156;17.044;2023-05-29T10:02:20;100619.97;;;24.33;19.83
70690;BME280;58267;51.156;17.044;2023-05-29T10:04:44;100615.44;;;24.59;19.76
70690;BME280;58267;51.156;17.044;2023-05-29T10:07:15;100608.95;;;24.55;19.62
70690;BME280;58267;51.156;17.044;2023-05-29T10:09:35;100609.92;;;24.82;19.65
70690;BME280;58267;51.156;17.044;2023-05-29T10:12:01;100606.02;;;24.70;19.61
70690;BME280;58267;51.156;17.044;2023-05-29T10:14:26;100600.92;;;25.09;19.41
70690;BME280;58267;51.156;17.044;2023-05-29T10:16:52;100604.62;;;24.92;19.25
70690;BME280;58267;51.156;17.044;2023-05-29T10:19:20;100600.49;;;23.96;19.89
70690;BME280;58267;51.156;17.044;2023-05-29T10:21:41;100610.78;;;22.63;21.28
70690;BME280;58267;51.156;17.044;2023-05-29T10:24:07;100611.40;;;21.41;21.96
70690;BME280;58267;51.156;17.044;2023-05-29T10:26:34;100602.77;;;23.39;21.23
70690;BME280;58267;51.156;17.044;2023-05-29T10:29:03;100602.19;;;24.36;20.50
70690;BME280;58267;51.156;17.044;2023-05-29T10:31:28;100595.90;;;24.52;19.64
70690;BME280;58267;51.156;17.044;2023-05-29T10:33:58;100594.69;;;24.80;19.61
70690;BME280;58267;51.156;17.044;2023-05-29T10:36:14;100599.16;;;24.84;19.25
70690;BME280;58267;51.156;17.044;2023-05-29T10:38:40;100595.41;;;23.52;20.24
70690;BME280;58267;51.156;17.044;2023-05-29T10:43:30;100599.10;;;23.36;20.64
70690;BME280;58267;51.156;17.044;2023-05-29T10:45:53;100596.89;;;23.62;20.49
70690;BME280;58267;51.156;17.044;2023-05-29T10:50:46;100589.79;;;23.95;20.17
70690;BME280;58267;51.156;17.044;2023-05-29T10:53:10;100585.49;;;24.37;19.67
70690;BME280;58267;51.156;17.044;2023-05-29T10:55:34;100587.44;;;25.03;19.17
70690;BME280;58267;51.156;17.044;2023-05-29T10:58:04;100586.66;;;24.39;19.76
70690;BME280;58267;51.156;17.044;2023-05-29T11:00:25;100586.89;;;24.41;19.54
70690;BME280;58267;51.156;17.044;2023-05-29T11:02:52;100585.32;;;24.86;19.32
70690;BME280;58267;51.156;17.044;2023-05-29T11:05:20;100583.61;;;24.74;18.21
70690;BME280;58267;51.156;17.044;2023-05-29T11:10:12;100583.51;;;23.63;19.71
70690;BME280;58267;51.156;17.044;2023-05-29T11:12:31;100581.40;;;24.16;19.61
70690;BME280;58267;51.156;17.044;2023-05-29T11:15:00;100576.68;;;23.14;20.07
70690;BME280;58267;51.156;17.044;2023-05-29T11:17:30;100578.66;;;24.11;20.12
70690;BME280;58267;51.156;17.044;2023-05-29T11:19:46;100578.24;;;22.88;20.28
70690;BME280;58267;51.156;17.044;2023-05-29T11:22:18;100578.73;;;23.76;19.31
70690;BME280;58267;51.156;17.044;2023-05-29T11:24:38;100569.58;;;24.16;18.77
70690;BME280;58267;51.156;17.044;2023-05-29T11:27:02;100572.02;;;22.78;20.69
70690;BME280;58267;51.156;17.044;2023-05-29T11:29:28;100584.04;;;21.72;21.26
70690;BME280;58267;51.156;17.044;2023-05-29T11:31:58;100583.80;;;22.24;20.79
70690;BME280;58267;51.156;17.044;2023-05-29T11:34:17;100582.23;;;23.16;20.48
70690;BME280;58267;51.156;17.044;2023-05-29T11:36:42;100580.63;;;23.80;19.50
70690;BME280;58267;51.156;17.044;2023-05-29T11:39:09;100575.83;;;24.30;19.51
70690;BME280;58267;51.156;17.044;2023-05-29T11:41:33;100577.95;;;24.21;19.17
70690;BME280;58267;51.156;17.044;2023-05-29T11:43:59;100579.17;;;24.00;18.73
70690;BME280;58267;51.156;17.044;2023-05-29T11:46:23;100575.26;;;24.21;19.03
70690;BME280;58267;51.156;17.044;2023-05-29T11:48:49;100580.42;;;23.53;19.19
70690;BME280;58267;51.156;17.044;2023-05-29T11:51:14;100573.80;;;22.96;19.48
70690;BME280;58267;51.156;17.044;2023-05-29T11:53:40;100566.19;;;24.24;19.06
70690;BME280;58267;51.156;17.044;2023-05-29T11:56:08;100563.87;;;24.58;18.43
70690;BME280;58267;51.156;17.044;2023-05-29T11:58:30;100565.04;;;24.19;18.75
70690;BME280;58267;51.156;17.044;2023-05-29T12:00:55;100569.50;;;22.42;20.06
70690;BME280;58267;51.156;17.044;2023-05-29T12:03:20;100562.53;;;23.92;19.37
70690;BME280;58267;51.156;17.044;2023-05-29T12:05:46;100559.67;;;24.88;19.24
70690;BME280;58267;51.156;17.044;2023-05-29T12:08:10;100559.38;;;24.85;18.99
70690;BME280;58267;51.156;17.044;2023-05-29T12:10:36;100558.60;;;23.82;19.25
70690;BME280;58267;51.156;17.044;2023-05-29T12:13:01;100556.88;;;22.75;19.67
70690;BME280;58267;51.156;17.044;2023-05-29T12:15:26;100556.21;;;24.54;18.59
70690;BME280;58267;51.156;17.044;2023-05-29T12:17:53;100560.16;;;24.31;18.90
70690;BME280;58267;51.156;17.044;2023-05-29T12:20:17;100554.20;;;24.59;18.17
70690;BME280;58267;51.156;17.044;2023-05-29T12:22:44;100554.78;;;24.11;18.33
70690;BME280;58267;51.156;17.044;2023-05-29T12:25:10;100549.36;;;25.50;17.70
70690;BME280;58267;51.156;17.044;2023-05-29T12:27:33;100548.44;;;25.89;17.30
70690;BME280;58267;51.156;17.044;2023-05-29T12:30:00;100545.82;;;26.27;16.72
70690;BME280;58267;51.156;17.044;2023-05-29T12:32:23;100547.21;;;25.67;16.97
70690;BME280;58267;51.156;17.044;2023-05-29T12:34:49;100539.62;;;26.50;16.24
70690;BME280;58267;51.156;17.044;2023-05-29T12:37:14;100534.12;;;26.95;16.45
70690;BME280;58267;51.156;17.044;2023-05-29T12:39:39;100534.08;;;24.53;17.24
70690;BME280;58267;51.156;17.044;2023-05-29T12:42:05;100530.21;;;25.04;17.40